Time;durP1;ratioP1;P1;durP2;ratioP2;P2;SDS_P1;SDS_P2;PMS_P1;PMS_P2;Temp;Humidity;BMP_temperature;BMP_pressure;BME280_temperature;BME280_humidity;BME280_pressure;Samples;Min_cycle;Max_cycle;Signal;HPM_P1;HPM_P2
2023/09/29 00:01:00;;;;;;;8.90;8.10;;;13.50;96.70;;;13.47;93.35;98225.22;5091643;28;20452;-85
2023/09/29 00:03:27;;;;;;;9.70;8.70;;;13.60;96.30;;;13.58;93.73;98254.31;5080834;28;20455;-87
2023/09/29 00:05:58;;;;;;;10.30;8.20;;;13.70;95.70;;;13.04;93.73;98178.97;5099831;28;20455;-86
2023/09/29 00:08:25;;;;;;;10.83;9.10;;;13.70;95.60;;;13.52;94.31;98251.69;5090053;28;20475;-88
2023/09/29 00:10:53;;;;;;;13.50;9.20;;;13.60;95.60;;;13.42;94.98;98247.56;5091564;28;20444;-87
2023/09/29 00:13:26;;;;;;;9.57;8.43;;;13.60;95.90;;;13.24;95.84;98224.00;5089211;28;20459;-87
2023/09/29 00:15:54;;;;;;;9.57;8.60;;;13.60;96.20;;;12.55;96.30;98140.94;5089448;28;20453;-86
2023/09/29 00:18:23;;;;;;;11.50;9.90;;;13.40;96.40;;;13.30;96.01;98244.81;5086348;28;20448;-87
2023/09/29 00:20:50;;;;;;;10.13;9.13;;;13.40;97.40;;;13.00;96.78;98217.63;5069906;28;20460;-87
2023/09/29 00:23:20;;;;;;;9.57;8.60;;;13.30;97.20;;;13.29;96.52;98251.28;5092356;28;20462;-87
2023/09/29 00:25:49;;;;;;;10.50;9.47;;;13.40;97.80;;;13.27;96.72;98250.69;5092462;28;20455;-87
2023/09/29 00:28:17;;;;;;;10.53;9.20;;;13.40;97.70;;;13.12;96.45;98221.22;5094120;28;20518;-85
2023/09/29 00:30:45;;;;;;;11.07;9.17;;;13.40;97.40;;;12.73;97.09;98191.63;5090525;28;20467;-85
2023/09/29 00:33:15;;;;;;;29.53;11.57;;;13.50;97.50;;;13.16;97.52;98229.75;5087944;28;20458;-87
2023/09/29 00:35:43;;;;;;;9.90;8.90;;;13.40;97.40;;;13.15;97.68;98237.03;5089064;28;20460;-85
2023/09/29 00:38:12;;;;;;;12.50;8.43;;;13.30;97.70;;;12.83;98.08;98201.13;5091017;28;20436;-85
2023/09/29 00:40:39;;;;;;;10.10;8.87;;;13.20;98.30;;;13.16;97.66;98237.88;5088823;28;20511;-85
2023/09/29 00:43:08;;;;;;;13.30;9.50;;;13.20;99.40;;;12.53;97.82;98159.31;5105280;28;20455;-88
2023/09/29 00:45:48;;;;;;;11.10;9.47;;;13.20;99.10;;;12.21;97.37;98088.16;5088483;28;20476;-86
2023/09/29 00:48:19;;;;;;;9.87;8.97;;;13.20;99.20;;;12.73;97.10;98172.66;5071806;28;20466;-88
2023/09/29 00:50:46;;;;;;;11.93;10.00;;;13.30;98.50;;;12.92;96.78;98188.91;5073313;28;20471;-88
2023/09/29 00:53:18;;;;;;;10.53;9.53;;;13.30;97.80;;;12.60;97.09;98151.13;5102134;28;20452;-87
2023/09/29 00:55:47;;;;;;;10.00;9.00;;;13.30;97.60;;;12.51;97.25;98164.13;5109453;28;20535;-87
2023/09/29 00:58:17;;;;;;;10.93;9.93;;;13.20;97.80;;;12.86;97.52;98212.34;5100429;28;20451;-88
2023/09/29 01:00:52;;;;;;;12.23;9.87;;;13.20;98.20;;;12.97;98.05;98246.03;5105323;28;20462;-86
2023/09/29 01:03:20;;;;;;;9.67;8.73;;;13.10;98.10;;;12.85;97.96;98236.97;5100128;28;20450;-88
2023/09/29 01:05:49;;;;;;;10.47;9.07;;;13.00;98.00;;;12.30;98.97;98177.06;5098465;28;20470;-88
2023/09/29 01:08:21;;;;;;;11.17;10.17;;;12.80;98.80;;;12.57;99.95;98241.00;5096572;28;20481;-88
2023/09/29 01:10:49;;;;;;;10.23;9.13;;;12.70;99.70;;;12.54;100.00;98241.47;5099005;28;20459;-87
2023/09/29 01:13:17;;;;;;;10.73;9.57;;;12.60;99.90;;;12.54;100.00;98246.88;5098282;28;20451;-83
2023/09/29 01:15:46;;;;;;;11.40;10.30;;;12.60;99.90;;;12.50;99.80;98213.13;5086717;28;20483;-84
2023/09/29 01:18:17;;;;;;;11.27;9.50;;;12.70;99.90;;;12.67;99.32;98226.94;5083280;28;20466;-83
2023/09/29 01:20:44;;;;;;;10.80;9.10;;;12.80;99.90;;;12.61;99.37;98234.06;5085328;28;21040;-83
2023/09/29 01:23:11;;;;;;;10.27;9.27;;;12.80;99.90;;;12.61;99.93;98248.47;5082870;28;20459;-84
2023/09/29 01:25:41;;;;;;;11.77;10.53;;;12.70;99.90;;;12.70;100.00;98245.47;5081071;28;20966;-84
2023/09/29 01:28:10;;;;;;;11.73;10.63;;;12.70;99.90;;;11.53;99.62;98047.34;5086119;28;20467;-85
2023/09/29 01:30:43;;;;;;;10.53;9.60;;;12.90;99.90;;;12.83;99.27;98239.91;5084832;28;20463;-83
2023/09/29 01:33:10;;;;;;;11.40;10.17;;;13.00;99.90;;;12.83;99.46;98245.34;5085206;28;20489;-85
2023/09/29 01:35:39;;;;;;;10.73;9.73;;;13.00;99.80;;;12.84;99.18;98246.97;5071598;28;20830;-83
2023/09/29 01:38:07;;;;;;;12.60;10.23;;;13.10;99.20;;;12.73;99.47;98239.59;5086175;28;20455;-84
2023/09/29 01:40:34;;;;;;;10.27;9.33;;;13.00;98.80;;;12.60;99.60;98224.28;5086122;28;20987;-85
2023/09/29 01:43:03;;;;;;;10.40;9.40;;;12.90;99.00;;;11.65;100.00;98082.63;5070133;28;20460;-86
2023/09/29 01:45:32;;;;;;;11.40;10.40;;;12.90;99.70;;;12.61;100.00;98250.34;5092440;28;20511;-86
2023/09/29 01:48:00;;;;;;;12.40;9.83;;;12.90;99.90;;;12.48;100.00;98232.34;5090529;28;20462;-85
2023/09/29 01:50:28;;;;;;;11.87;10.47;;;12.80;99.90;;;12.52;100.00;98249.00;5084462;28;20459;-84
2023/09/29 01:52:55;;;;;;;11.63;10.43;;;12.80;99.90;;;12.34;100.00;98220.78;5091707;28;20454;-86
2023/09/29 01:55:24;;;;;;;10.80;9.80;;;12.80;99.90;;;12.36;100.00;98251.22;5085197;28;20802;-86
2023/09/29 01:57:54;;;;;;;12.20;10.90;;;12.60;99.90;;;12.22;100.00;98250.47;5088086;28;20467;-87
2023/09/29 02:00:25;;;;;;;11.33;10.10;;;12.50;99.90;;;11.90;100.00;98201.72;5087694;28;20482;-87
2023/09/29 02:02:55;;;;;;;12.17;10.80;;;12.40;99.90;;;12.35;100.00;98246.00;5088910;28;20450;-86
2023/09/29 02:05:23;;;;;;;12.40;11.10;;;12.50;99.90;;;12.33;100.00;98244.34;5090014;28;20458;-87
2023/09/29 02:07:51;;;;;;;11.87;10.67;;;12.50;99.90;;;12.28;100.00;98243.34;5088941;28;20473;-87
2023/09/29 02:10:20;;;;;;;12.07;10.70;;;12.50;99.90;;;12.36;100.00;98243.06;5089251;28;20911;-86
2023/09/29 02:12:57;;;;;;;16.60;11.60;;;12.50;99.90;;;10.81;100.00;98008.72;5086232;28;20558;-87
2023/09/29 02:15:28;;;;;;;12.07;10.90;;;12.50;99.90;;;12.18;100.00;98228.41;5090278;28;20443;-87
2023/09/29 02:17:57;;;;;;;12.40;11.20;;;12.60;99.90;;;12.35;100.00;98241.38;5073612;28;20450;-86
2023/09/29 02:20:38;;;;;;;12.37;11.10;;;12.60;99.90;;;11.41;100.00;98115.69;5094041;28;20451;-86
2023/09/29 02:23:07;;;;;;;13.63;12.20;;;12.60;99.90;;;11.75;100.00;98167.69;5118193;28;20455;-86
2023/09/29 02:25:35;;;;;;;15.30;12.83;;;12.60;99.90;;;11.85;100.00;98169.09;5101921;28;20451;-87
2023/09/29 02:28:03;;;;;;;14.83;11.50;;;12.60;99.90;;;12.04;100.00;98207.88;5128325;27;20549;-88
2023/09/29 02:30:57;;;;;;;13.50;11.67;;;12.50;99.90;;;11.13;100.00;98075.47;5098199;28;20518;-86
2023/09/29 02:33:25;;;;;;;11.63;10.47;;;12.40;99.90;;;12.12;100.00;98255.53;5092907;28;20506;-85
2023/09/29 02:35:53;;;;;;;14.17;11.93;;;12.30;99.90;;;11.58;100.00;98166.56;5085092;28;20487;-87
2023/09/29 02:38:20;;;;;;;12.70;11.23;;;12.30;99.90;;;12.13;100.00;98241.78;5086127;28;20540;-87
2023/09/29 02:40:53;;;;;;;15.93;11.77;;;12.40;99.90;;;11.87;100.00;98191.34;5094226;28;20449;-86
2023/09/29 02:43:35;;;;;;;13.30;11.90;;;12.40;99.90;;;12.03;100.00;98201.66;5073606;28;20952;-84
2023/09/29 02:46:16;;;;;;;14.10;12.70;;;12.50;99.90;;;12.23;100.00;98229.63;5083113;28;20459;-84
2023/09/29 02:48:44;;;;;;;12.47;11.17;;;12.50;99.90;;;12.27;100.00;98241.69;5087151;28;20558;-84
2023/09/29 02:51:17;;;;;;;13.47;12.03;;;12.50;99.90;;;11.00;100.00;98033.16;5091383;28;20453;-84
2023/09/29 02:53:48;;;;;;;14.00;11.13;;;12.50;99.90;;;12.10;100.00;98193.47;5087377;28;20492;-86
2023/09/29 02:56:16;;;;;;;13.90;12.47;;;12.60;99.90;;;12.06;100.00;98194.97;5087808;28;20507;-86
2023/09/29 02:58:44;;;;;;;12.40;11.10;;;12.50;99.90;;;12.02;100.00;98201.88;5092267;28;20441;-86
2023/09/29 03:01:16;;;;;;;11.70;10.60;;;12.50;99.90;;;12.32;100.00;98244.53;5096364;28;20454;-87
2023/09/29 03:03:45;;;;;;;11.73;10.53;;;12.50;99.90;;;12.21;100.00;98245.25;5091366;28;20462;-86
2023/09/29 03:06:19;;;;;;;13.17;11.93;;;12.40;99.90;;;11.95;100.00;98195.66;5087369;28;20446;-85
2023/09/29 03:08:49;;;;;;;11.67;10.57;;;12.40;99.90;;;11.75;100.00;98197.44;5082661;28;20899;-87
2023/09/29 03:11:17;;;;;;;11.87;10.67;;;12.30;99.90;;;12.00;100.00;98220.19;5085955;28;20454;-87
2023/09/29 03:13:46;;;;;;;12.73;11.30;;;12.30;99.90;;;10.58;100.00;98001.16;5083544;28;20451;-84
2023/09/29 03:16:18;;;;;;;13.00;11.70;;;12.30;99.90;;;12.02;100.00;98250.59;5102057;28;20450;-86
2023/09/29 03:18:57;;;;;;;;;;;;;;;;;;;;;
2023/09/29 03:21:27;;;;;;;14.20;11.17;;;12.10;99.90;;;12.03;100.00;98254.97;5079379;28;20459;-85
2023/09/29 03:23:58;;;;;;;12.50;11.30;;;12.20;99.90;;;12.10;100.00;98250.34;5087011;28;20562;-85
2023/09/29 03:26:26;;;;;;;13.37;12.00;;;12.20;99.90;;;11.99;100.00;98243.75;5091006;28;20462;-86
2023/09/29 03:28:55;;;;;;;12.90;11.50;;;12.20;99.90;;;11.95;100.00;98249.81;5087117;28;20504;-86
2023/09/29 03:31:26;;;;;;;13.77;11.67;;;12.20;99.90;;;11.23;100.00;98138.03;5092074;28;20452;-87
2023/09/29 03:34:03;;;;;;;14.17;12.47;;;12.20;99.90;;;11.99;100.00;98256.44;5091818;28;20457;-84
2023/09/29 03:36:31;;;;;;;13.93;12.50;;;12.20;99.90;;;11.85;100.00;98229.44;5097017;28;20539;-84
2023/09/29 03:39:05;;;;;;;13.60;12.20;;;12.30;99.90;;;11.96;100.00;98246.88;5092256;28;20452;-85
2023/09/29 03:41:33;;;;;;;12.53;11.33;;;12.30;99.90;;;12.02;100.00;98240.63;5091918;28;20470;-85
2023/09/29 03:44:00;;;;;;;12.37;11.17;;;12.30;99.90;;;11.42;100.00;98116.50;5092265;28;20454;-85
2023/09/29 03:46:30;;;;;;;13.80;11.43;;;12.40;99.90;;;12.16;100.00;98235.91;5091435;28;20456;-86
2023/09/29 03:48:57;;;;;;;11.77;10.67;;;12.40;99.90;;;12.22;100.00;98226.09;5073008;28;20630;-87
2023/09/29 03:51:26;;;;;;;12.80;11.40;;;12.50;99.90;;;12.24;100.00;98231.28;5088420;28;20519;-87
2023/09/29 03:53:56;;;;;;;13.20;11.73;;;12.50;99.90;;;12.33;100.00;98229.94;5090857;28;20463;-85
2023/09/29 03:56:25;;;;;;;14.73;11.83;;;12.50;99.90;;;12.36;100.00;98232.25;5085793;28;20454;-87
2023/09/29 03:58:58;;;;;;;15.43;10.70;;;12.60;99.10;;;11.21;99.09;98042.78;5088700;28;20755;-86
2023/09/29 04:01:29;;;;;;;12.20;10.90;;;12.70;98.70;;;12.40;99.42;98221.75;5086934;28;20966;-86
2023/09/29 04:04:01;;;;;;;12.23;11.00;;;12.70;97.80;;;12.02;98.73;98153.13;5056377;28;20485;-85
2023/09/29 04:06:28;;;;;;;15.03;11.20;;;12.80;97.30;;;11.99;98.52;98143.56;5085487;28;20534;-88
2023/09/29 04:08:55;;;;;;;12.40;11.10;;;12.90;96.60;;;12.32;98.21;98184.94;5089257;28;20476;-83
2023/09/29 04:11:22;;;;;;;15.10;10.03;;;12.80;96.60;;;12.56;98.11;98217.66;5090317;28;20469;-86
2023/09/29 04:13:51;;;;;;;13.17;11.27;;;12.90;96.40;;;12.42;96.79;98185.28;5085684;28;20522;-86
2023/09/29 04:16:21;;;;;;;11.57;9.93;;;12.90;96.30;;;12.28;96.59;98184.59;5086545;28;20446;-86
2023/09/29 04:18:50;;;;;;;12.00;10.70;;;12.80;96.10;;;11.80;96.17;98112.88;5080639;28;20473;-87
2023/09/29 04:21:18;;;;;;;16.13;11.53;;;12.80;96.20;;;11.61;96.19;98098.47;5088206;28;20451;-86
2023/09/29 04:23:48;;;;;;;11.33;10.23;;;12.70;96.00;;;12.28;96.83;98216.25;5085235;28;20786;-85
2023/09/29 04:26:16;;;;;;;13.30;11.27;;;12.60;96.30;;;11.57;97.08;98119.72;5088131;28;20458;-86
2023/09/29 04:28:44;;;;;;;12.17;10.17;;;12.60;96.30;;;11.98;97.29;98184.38;5085100;28;20554;-85
2023/09/29 04:31:13;;;;;;;14.97;10.70;;;12.50;96.50;;;12.22;97.54;98238.81;5084721;28;20504;-84
2023/09/29 04:33:40;;;;;;;11.83;10.60;;;12.50;96.70;;;12.06;98.29;98213.09;5103828;28;20543;-85
2023/09/29 04:36:10;;;;;;;15.27;10.70;;;12.40;97.10;;;11.96;97.23;98186.47;5090027;28;20454;-86
2023/09/29 04:38:41;;;;;;;13.10;11.80;;;12.50;96.80;;;12.05;96.87;98209.53;5084348;28;20449;-84
2023/09/29 04:41:09;;;;;;;14.53;10.63;;;12.40;96.40;;;11.33;97.89;98114.06;5095558;28;20927;-86
2023/09/29 04:43:36;;;;;;;12.80;10.90;;;12.30;97.40;;;12.07;97.62;98236.41;5088934;28;20522;-85
2023/09/29 04:46:05;;;;;;;13.23;11.33;;;12.20;97.10;;;11.68;97.70;98182.31;5086606;28;20462;-85
2023/09/29 04:48:38;;;;;;;11.53;10.20;;;12.20;97.40;;;12.00;97.86;98239.97;5083086;28;20464;-86
2023/09/29 04:51:05;;;;;;;12.10;10.90;;;12.10;97.70;;;11.58;97.44;98197.13;5084378;28;20463;-87
2023/09/29 04:53:34;;;;;;;12.17;10.90;;;12.10;97.60;;;11.94;98.02;98257.09;5086307;28;20975;-87
2023/09/29 04:56:03;;;;;;;13.00;10.80;;;12.00;98.70;;;11.85;97.64;98237.56;5091676;28;20462;-84
2023/09/29 04:58:30;;;;;;;14.50;11.70;;;12.00;98.60;;;11.66;98.65;98235.81;5105877;28;20447;-86
2023/09/29 05:01:03;;;;;;;14.60;11.60;;;12.00;98.50;;;11.12;98.52;98128.75;5107720;28;20462;-83
2023/09/29 05:03:30;;;;;;;12.57;10.33;;;12.00;98.90;;;11.60;99.16;98219.41;5084074;28;20503;-85
2023/09/29 05:05:59;;;;;;;10.43;9.50;;;12.00;98.90;;;11.67;98.94;98218.53;5102352;28;20509;-87
2023/09/29 05:08:27;;;;;;;12.17;10.53;;;12.10;98.30;;;11.96;99.34;98254.19;5086332;28;20524;-87
2023/09/29 05:10:56;;;;;;;11.80;10.60;;;12.20;98.50;;;11.93;98.36;98262.75;5083411;28;20461;-84
2023/09/29 05:13:28;;;;;;;12.60;11.30;;;12.20;97.70;;;11.81;97.69;98220.13;5085585;28;20457;-85
2023/09/29 05:15:56;;;;;;;13.37;11.00;;;12.20;97.30;;;11.92;98.05;98256.47;5086100;28;20476;-84
2023/09/29 05:18:24;;;;;;;12.97;11.67;;;12.20;97.40;;;11.83;98.88;98234.25;5082395;28;20450;-73
2023/09/29 05:20:51;;;;;;;12.20;11.00;;;12.20;97.80;;;11.87;98.73;98254.41;5095990;28;20568;-76
2023/09/29 05:23:18;;;;;;;13.53;11.30;;;12.20;97.30;;;11.95;98.61;98256.03;5081781;28;20450;-87
2023/09/29 05:25:46;;;;;;;12.80;11.50;;;12.20;97.40;;;11.92;99.16;98256.47;5083946;28;20461;-87
2023/09/29 05:28:15;;;;;;;13.17;11.10;;;12.20;97.50;;;11.76;99.27;98222.66;5090700;28;20460;-84
2023/09/29 05:30:54;;;;;;;12.67;11.47;;;12.30;97.60;;;12.19;98.77;98251.72;5082256;28;20454;-85
2023/09/29 05:33:21;;;;;;;13.13;10.77;;;12.40;98.20;;;12.44;97.10;98255.53;5079752;28;20447;-87
2023/09/29 05:35:48;;;;;;;12.13;10.93;;;12.70;97.30;;;12.58;95.92;98248.09;5083275;28;20489;-83
2023/09/29 05:38:16;;;;;;;14.90;11.17;;;12.80;96.10;;;12.65;96.51;98245.31;5063140;28;20459;-81
2023/09/29 05:40:44;;;;;;;12.60;11.30;;;12.90;96.10;;;12.66;94.40;98250.53;5080694;28;20474;-81
2023/09/29 05:43:11;;;;;;;16.20;11.90;;;13.00;94.40;;;12.89;93.66;98238.19;5075659;28;20949;-78
2023/09/29 05:45:40;;;;;;;17.67;12.00;;;13.20;94.60;;;13.15;91.71;98263.34;5076545;28;20977;-82
2023/09/29 05:48:09;;;;;;;15.27;12.00;;;13.40;93.60;;;13.34;92.64;98264.16;5079341;28;20469;-79
2023/09/29 05:50:37;;;;;;;11.90;10.70;;;13.50;93.90;;;13.46;91.26;98273.22;5079836;28;20546;-82
2023/09/29 05:53:05;;;;;;;13.30;10.83;;;13.60;93.50;;;13.53;91.93;98275.88;5086190;28;20486;-76
2023/09/29 05:55:33;;;;;;;13.43;11.73;;;13.60;93.70;;;13.81;90.48;98281.78;5097417;28;20511;-75
2023/09/29 05:58:00;;;;;;;12.00;10.77;;;13.90;93.30;;;13.53;89.91;98275.88;5086863;28;20459;-83
2023/09/29 06:00:27;;;;;;;13.63;11.07;;;13.80;92.40;;;13.28;90.85;98273.22;5071404;28;20609;-81
2023/09/29 06:02:56;;;;;;;12.90;11.60;;;13.70;92.30;;;13.31;91.13;98267.34;5084411;28;20811;-74
2023/09/29 06:05:23;;;;;;;14.70;11.47;;;13.70;92.50;;;13.54;90.64;98268.56;5083187;28;20449;-72
2023/09/29 06:07:51;;;;;;;12.00;10.43;;;13.80;92.70;;;13.78;89.00;98266.78;5078400;28;20447;-85
2023/09/29 06:10:18;;;;;;;13.30;11.00;;;14.00;92.50;;;13.73;88.13;98269.38;5075207;28;20816;-74
2023/09/29 06:12:45;;;;;;;15.43;11.70;;;14.00;91.70;;;13.91;88.50;98267.66;5077973;28;20461;-74
2023/09/29 06:15:12;;;;;;;14.77;11.67;;;14.10;91.90;;;14.02;87.10;98272.28;5078562;28;20454;-75
2023/09/29 06:17:39;;;;;;;12.97;11.57;;;14.20;91.60;;;13.96;87.49;98273.19;5077225;28;20484;-74
2023/09/29 06:20:09;;;;;;;16.10;11.30;;;14.20;91.50;;;14.19;87.06;98271.63;5080705;28;20537;-75
2023/09/29 06:22:36;;;;;;;12.40;11.20;;;14.40;91.40;;;14.28;85.13;98272.94;5080678;28;20503;-74
2023/09/29 06:25:03;;;;;;;13.23;10.80;;;14.50;90.90;;;14.29;85.19;98274.59;5076609;28;20819;-74
2023/09/29 06:27:31;;;;;;;10.90;9.67;;;14.60;91.00;;;14.34;85.31;98273.88;5096722;28;20467;-75
2023/09/29 06:29:58;;;;;;;13.93;12.43;;;14.60;90.70;;;14.53;84.65;98271.91;5080449;28;21318;-74
2023/09/29 06:32:25;;;;;;;16.53;11.27;;;14.70;90.70;;;14.43;84.55;98278.75;5096076;28;20478;-75
2023/09/29 06:34:52;;;;;;;11.67;10.47;;;14.70;90.60;;;14.42;84.85;98274.38;5078224;28;20841;-75
2023/09/29 06:37:21;;;;;;;12.93;11.13;;;14.70;90.50;;;14.41;85.10;98275.44;5081850;28;20930;-75
2023/09/29 06:39:49;;;;;;;14.60;11.23;;;14.70;90.60;;;14.57;84.80;98284.81;5079645;28;20440;-75
2023/09/29 06:42:16;;;;;;;15.00;11.33;;;14.80;90.60;;;14.63;84.48;98283.00;5092866;28;20467;-74
2023/09/29 06:44:43;;;;;;;11.37;10.27;;;14.90;90.60;;;14.99;82.98;98286.59;5099495;28;20442;-75
2023/09/29 06:47:10;;;;;;;15.97;11.03;;;15.10;90.50;;;14.94;82.27;98272.91;5077307;28;20475;-75
2023/09/29 06:49:37;;;;;;;12.80;11.43;;;15.20;90.10;;;14.80;82.96;98279.66;5080804;28;20462;-76
2023/09/29 06:52:05;;;;;;;19.33;10.07;;;15.10;90.10;;;14.98;82.78;98293.13;5081838;28;20483;-76
2023/09/29 06:54:33;;;;;;;12.03;10.77;;;15.20;90.20;;;14.96;82.82;98288.97;5080596;28;20463;-75
2023/09/29 06:57:00;;;;;;;12.00;10.90;;;15.30;90.10;;;15.04;82.64;98298.66;5081317;28;20570;-76
2023/09/29 06:59:28;;;;;;;11.13;10.03;;;15.30;90.10;;;15.30;81.55;98298.16;5087585;28;20447;-75
2023/09/29 07:01:55;;;;;;;13.37;10.60;;;15.40;90.00;;;15.44;81.19;98297.91;5081726;28;21799;-74
2023/09/29 07:04:23;;;;;;;13.77;10.87;;;15.60;90.00;;;15.65;79.85;98303.75;5077189;28;20535;-74
2023/09/29 07:06:50;;;;;;;12.87;10.67;;;15.70;89.50;;;15.35;80.82;98293.88;5079269;28;20519;-74
2023/09/29 07:09:18;;;;;;;12.73;10.43;;;15.70;89.20;;;15.86;79.43;98299.53;5077325;28;20508;-75
2023/09/29 07:11:46;;;;;;;15.60;10.00;;;15.90;89.30;;;16.21;77.24;98304.03;5077335;28;20494;-74
2023/09/29 07:14:13;;;;;;;11.03;9.50;;;16.30;88.50;;;16.52;76.43;98298.28;5080887;28;20455;-74
2023/09/29 07:16:42;;;;;;;11.23;10.13;;;16.50;88.10;;;16.70;74.86;98298.03;5093849;27;20452;-74
2023/09/29 07:19:12;;;;;;;13.90;10.13;;;16.80;87.30;;;16.38;74.94;98257.69;5098532;27;20452;-74
2023/09/29 07:21:40;;;;;;;12.70;10.17;;;16.90;86.90;;;16.58;74.37;98272.72;5083204;28;20455;-75
2023/09/29 07:24:08;;;;;;;10.93;8.80;;;17.00;86.60;;;17.39;72.82;98306.94;5081073;28;20467;-74
2023/09/29 07:26:36;;;;;;;13.57;9.93;;;17.30;86.50;;;17.58;71.74;98303.09;5080421;28;20491;-75
2023/09/29 07:29:04;;;;;;;13.53;9.10;;;17.50;85.90;;;17.81;70.64;98302.00;5077522;28;20496;-75
2023/09/29 07:31:36;;;;;;;12.07;9.90;;;17.80;85.30;;;17.85;70.37;98294.91;5095381;27;20444;-75
2023/09/29 07:34:04;;;;;;;14.83;9.30;;;17.90;84.90;;;17.93;70.39;98296.38;5081245;28;20543;-75
2023/09/29 07:36:33;;;;;;;14.20;8.87;;;18.10;84.70;;;17.98;70.01;98293.72;5080438;28;20986;-75
2023/09/29 07:39:00;;;;;;;10.00;8.60;;;18.10;84.30;;;18.35;68.45;98289.41;5079542;28;20472;-75
2023/09/29 07:41:28;;;;;;;10.07;8.70;;;18.30;83.90;;;18.66;67.16;98293.25;5079693;28;21526;-76
2023/09/29 07:43:55;;;;;;;10.50;8.33;;;18.60;83.30;;;18.87;66.67;98298.84;5075925;28;20543;-76
2023/09/29 07:46:24;;;;;;;8.87;8.07;;;18.80;83.10;;;18.92;65.63;98290.69;5079419;28;20455;-76
2023/09/29 07:48:51;;;;;;;11.10;7.60;;;19.00;82.20;;;18.98;65.64;98295.09;5074987;28;21309;-76
2023/09/29 07:51:19;;;;;;;10.10;7.40;;;19.00;82.00;;;18.98;65.46;98273.22;5081814;28;20453;-76
2023/09/29 07:53:46;;;;;;;8.43;7.43;;;19.10;81.80;;;19.49;63.85;98282.00;5079380;28;20456;-76
2023/09/29 07:56:13;;;;;;;8.10;7.33;;;19.40;81.40;;;19.39;63.79;98283.59;5078452;28;20440;-74
2023/09/29 07:58:41;;;;;;;10.43;6.90;;;19.50;80.90;;;19.76;62.95;98292.75;5087103;28;20434;-74
2023/09/29 08:01:08;;;;;;;8.60;7.00;;;19.60;80.90;;;19.79;62.19;98270.31;5081219;28;20462;-76
2023/09/29 08:03:37;;;;;;;6.97;6.33;;;19.90;80.10;;;20.19;60.63;98294.53;5078157;28;20448;-75
2023/09/29 08:06:05;;;;;;;10.27;6.90;;;20.10;79.30;;;20.41;59.84;98297.03;5077374;28;20692;-75
2023/09/29 08:08:32;;;;;;;7.97;6.50;;;20.40;78.50;;;20.59;59.34;98301.19;5091549;28;20559;-74
2023/09/29 08:10:59;;;;;;;10.20;6.90;;;20.60;78.00;;;20.85;58.36;98303.94;5097888;28;20957;-74
2023/09/29 08:13:28;;;;;;;7.43;6.17;;;20.80;77.50;;;21.06;57.71;98314.88;5078594;28;20455;-74
2023/09/29 08:15:55;;;;;;;6.40;5.70;;;21.00;77.30;;;21.28;56.50;98311.81;5081469;28;20479;-75
2023/09/29 08:18:23;;;;;;;7.60;6.87;;;21.10;76.20;;;21.05;57.03;98305.00;5081446;28;20501;-75
2023/09/29 08:20:54;;;;;;;11.30;8.97;;;21.00;75.90;;;20.80;57.13;98306.66;5077787;28;20460;-74
2023/09/29 08:23:22;;;;;;;6.57;5.97;;;21.00;75.20;;;21.09;56.70;98311.59;5080264;28;21039;-75
2023/09/29 08:25:49;;;;;;;7.43;6.70;;;21.00;75.40;;;21.17;56.97;98313.78;5082441;28;20525;-75
2023/09/29 08:28:16;;;;;;;6.30;5.37;;;21.00;75.30;;;21.34;56.72;98307.13;5091294;28;20459;-75
2023/09/29 08:30:43;;;;;;;5.83;5.20;;;21.20;75.30;;;21.48;56.39;98308.19;5072360;28;20482;-75
2023/09/29 08:33:11;;;;;;;8.00;6.27;;;21.30;75.10;;;21.39;55.75;98309.84;5077620;28;20461;-74
2023/09/29 08:35:38;;;;;;;6.70;5.27;;;21.40;74.40;;;21.62;54.99;98302.09;5079190;28;20551;-75
2023/09/29 08:38:07;;;;;;;6.00;5.50;;;21.50;74.00;;;21.43;55.38;98299.94;5080070;28;20466;-75
2023/09/29 08:40:39;;;;;;;7.57;5.67;;;21.50;73.60;;;21.25;56.07;98282.16;5070928;28;20953;-75
2023/09/29 08:43:10;;;;;;;6.90;6.30;;;21.30;73.60;;;21.53;55.01;98277.09;5080039;28;20500;-74
2023/09/29 08:45:43;;;;;;;10.30;6.00;;;21.50;73.40;;;22.04;54.20;98276.03;5072339;28;20547;-76
2023/09/29 08:48:12;;;;;;;6.67;5.97;;;21.80;73.30;;;22.19;53.76;98274.28;5078455;28;21030;-75
2023/09/29 08:50:42;;;;;;;6.20;5.43;;;22.20;72.80;;;21.96;54.17;98273.91;5080815;28;20479;-75
2023/09/29 08:53:12;;;;;;;9.13;5.97;;;22.10;72.50;;;22.61;53.43;98288.59;5084567;28;20452;-75
2023/09/29 08:55:39;;;;;;;5.97;5.47;;;22.30;72.60;;;22.87;52.43;98269.06;5085993;28;20544;-75
2023/09/29 08:58:07;;;;;;;7.23;5.77;;;22.70;72.00;;;23.03;51.81;98278.03;5090879;28;20452;-74
2023/09/29 09:00:35;;;;;;;8.67;5.10;;;22.90;71.40;;;22.87;52.01;98288.34;5081572;28;20457;-76
2023/09/29 09:03:02;;;;;;;8.00;5.37;;;23.00;71.10;;;22.87;52.20;98264.41;5079136;28;20449;-75
2023/09/29 09:05:29;;;;;;;8.63;5.13;;;23.00;71.10;;;22.85;51.96;98228.06;5094818;28;20449;-76
2023/09/29 09:07:59;;;;;;;5.97;5.47;;;23.10;70.90;;;23.25;51.51;98273.91;5078192;28;20466;-75
2023/09/29 09:10:35;;;;;;;5.87;5.23;;;23.30;70.70;;;23.46;51.59;98271.78;5079135;28;20581;-76
2023/09/29 09:13:03;;;;;;;5.13;4.70;;;23.40;70.60;;;23.61;51.20;98271.59;5075274;28;20463;-74
2023/09/29 09:15:31;;;;;;;6.37;5.77;;;23.60;70.40;;;23.73;50.98;98279.44;5080021;28;20455;-73
2023/09/29 09:17:59;;;;;;;6.90;6.20;;;23.70;70.30;;;24.02;50.04;98281.25;5081426;28;20466;-75
2023/09/29 09:20:27;;;;;;;6.50;5.90;;;23.90;69.80;;;24.00;50.10;98280.72;5078960;28;20456;-75
2023/09/29 09:22:59;;;;;;;10.53;5.23;;;24.10;69.70;;;23.90;50.46;98283.63;5076694;28;20463;-74
2023/09/29 09:25:42;;;;;;;6.77;5.40;;;24.00;69.30;;;23.73;50.57;98282.19;5080272;28;20540;-75
2023/09/29 09:28:16;;;;;;;5.97;5.37;;;23.90;69.00;;;23.83;49.38;98278.47;5077829;28;20475;-75
2023/09/29 09:30:44;;;;;;;7.83;6.27;;;23.80;68.40;;;23.72;49.75;98277.78;5078559;28;20464;-75
2023/09/29 09:33:21;;;;;;;6.43;5.87;;;23.80;68.40;;;23.83;50.20;98277.66;5078174;28;20460;-76
2023/09/29 09:35:49;;;;;;;7.43;5.77;;;23.80;68.70;;;23.87;49.69;98270.41;5085443;28;20698;-74
2023/09/29 09:38:19;;;;;;;5.87;5.37;;;23.90;68.20;;;24.04;49.63;98278.22;5077290;28;20460;-74
2023/09/29 09:40:50;;;;;;;5.23;4.80;;;24.00;68.10;;;23.90;49.66;98262.38;5078711;28;20451;-76
2023/09/29 09:43:21;;;;;;;5.70;5.20;;;23.90;67.70;;;23.96;49.12;98263.13;5093266;28;20951;-75
2023/09/29 09:45:51;;;;;;;5.30;4.80;;;24.00;67.40;;;23.95;49.43;98247.69;5079106;28;20451;-73
2023/09/29 09:48:25;;;;;;;6.53;5.20;;;24.00;67.60;;;23.51;50.19;98237.81;5080099;28;20457;-75
2023/09/29 09:50:57;;;;;;;5.20;4.70;;;23.70;67.50;;;23.68;49.41;98238.13;5076990;28;20479;-75
2023/09/29 09:53:28;;;;;;;6.43;4.70;;;23.80;67.20;;;24.11;48.35;98178.50;5075883;28;21159;-74
2023/09/29 09:56:04;;;;;;;6.40;4.80;;;24.10;67.20;;;24.31;48.33;98221.50;5081334;28;20547;-75
2023/09/29 09:58:32;;;;;;;6.53;5.47;;;24.40;67.00;;;24.22;48.70;98246.22;5081269;28;20852;-76
2023/09/29 10:01:06;;;;;;;7.87;5.07;;;24.40;66.70;;;24.55;48.19;98237.94;5083444;28;20482;-76
2023/09/29 10:03:33;;;;;;;10.30;5.60;;;24.50;67.00;;;24.82;47.61;98238.31;5078627;28;20455;-76
2023/09/29 10:06:05;;;;;;;5.40;4.90;;;24.70;66.50;;;24.79;47.37;98253.56;5080489;28;20475;-76
2023/09/29 10:08:33;;;;;;;6.93;4.83;;;24.70;66.20;;;24.95;46.88;98245.81;5082448;28;20521;-76
2023/09/29 10:11:13;;;;;;;5.17;4.50;;;24.90;65.80;;;24.63;47.85;98250.22;5081731;28;20523;-76
2023/09/29 10:13:44;;;;;;;6.47;4.93;;;24.70;65.80;;;24.61;48.14;98250.53;5084140;28;20470;-76
2023/09/29 10:16:22;;;;;;;6.20;5.37;;;24.60;66.10;;;25.15;47.27;98250.13;5080443;28;20956;-75
2023/09/29 10:18:57;;;;;;;4.77;4.37;;;24.80;66.40;;;25.58;46.30;98245.44;5085467;28;20492;-77